createdAt,value
2023-04-18T00:00:57.887Z,60.60
2023-04-18T00:03:25.648Z,59.67
2023-04-18T00:05:53.260Z,58.93
2023-04-18T00:08:20.174Z,60.70
2023-04-18T00:10:47.485Z,60.13
2023-04-18T00:13:14.438Z,61.07
2023-04-18T00:15:43.849Z,60.63
2023-04-18T00:18:10.849Z,61.20
2023-04-18T00:20:38.996Z,61.03
2023-04-18T00:23:06.301Z,60.53
2023-04-18T00:25:33.443Z,59.67
2023-04-18T00:28:00.475Z,60.73
2023-04-18T00:30:27.536Z,60.60
2023-04-18T00:32:54.525Z,61.23
2023-04-18T00:35:21.665Z,61.33
2023-04-18T00:37:48.644Z,60.60
2023-04-18T00:40:16.642Z,60.87
2023-04-18T00:42:43.668Z,61.40
2023-04-18T00:45:11.047Z,69.43
2023-04-18T00:47:38.231Z,103.63
2023-04-18T00:50:06.431Z,71.33
2023-04-18T00:52:35.836Z,67.07
2023-04-18T00:55:06.627Z,76.70
2023-04-18T00:57:34.232Z,63.87
2023-04-18T01:00:04.898Z,60.70
2023-04-18T01:02:33.984Z,61.93
2023-04-18T01:05:02.054Z,68.07
2023-04-18T01:07:33.422Z,70.43
2023-04-18T01:10:02.032Z,81.00
2023-04-18T01:12:29.016Z,74.50
2023-04-18T01:14:56.032Z,64.23
2023-04-18T01:17:23.381Z,62.87
2023-04-18T01:19:51.624Z,64.67
2023-04-18T01:22:20.045Z,84.10
2023-04-18T01:24:47.027Z,61.23
2023-04-18T01:27:14.491Z,61.27
2023-04-18T01:29:41.508Z,64.20
2023-04-18T01:32:08.604Z,64.57
2023-04-18T01:34:37.002Z,79.20
2023-04-18T01:37:06.364Z,89.10
2023-04-18T01:39:33.367Z,64.30
2023-04-18T01:42:01.965Z,60.23
2023-04-18T01:44:28.915Z,61.33
2023-04-18T01:46:55.991Z,70.97
2023-04-18T01:49:23.198Z,60.70
2023-04-18T01:51:50.166Z,73.10
2023-04-18T01:54:17.128Z,65.73
2023-04-18T01:56:44.052Z,63.87
2023-04-18T01:59:11.048Z,72.33
2023-04-18T02:01:38.781Z,61.17
2023-04-18T02:04:05.783Z,74.73
2023-04-18T02:06:32.753Z,60.07
2023-04-18T02:09:00.149Z,62.53
2023-04-18T02:11:27.134Z,60.07
2023-04-18T02:13:54.106Z,74.27
2023-04-18T02:16:21.389Z,70.03
2023-04-18T02:18:49.729Z,67.70
2023-04-18T02:21:16.722Z,60.03
2023-04-18T02:23:43.665Z,64.20
2023-04-18T02:26:10.635Z,61.00
2023-04-18T02:28:39.076Z,62.07
2023-04-18T02:31:07.847Z,83.20
2023-04-18T02:33:34.809Z,60.17
2023-04-18T02:36:01.847Z,66.03
2023-04-18T02:38:28.965Z,81.50
2023-04-18T02:40:56.078Z,61.53
2023-04-18T02:43:23.206Z,61.30
2023-04-18T02:45:50.622Z,61.67
2023-04-18T02:48:17.811Z,66.23
2023-04-18T02:50:45.965Z,72.13
2023-04-18T02:53:13.305Z,62.53
2023-04-18T02:55:51.433Z,72.87
2023-04-18T02:58:19.625Z,70.93
2023-04-18T03:01:19.611Z,61.60
2023-04-18T03:04:02.004Z,61.47
2023-04-18T03:06:39.250Z,61.13
2023-04-18T03:09:07.114Z,61.83
2023-04-18T03:11:37.078Z,73.07
2023-04-18T03:14:04.892Z,63.33
2023-04-18T03:16:45.644Z,66.60
2023-04-18T03:19:15.921Z,74.27
2023-04-18T03:21:43.074Z,61.57
2023-04-18T03:24:12.324Z,62.47
2023-04-18T03:26:41.284Z,67.50
2023-04-18T03:29:08.785Z,61.60
2023-04-18T03:31:35.950Z,60.63
2023-04-18T03:34:03.028Z,62.37
2023-04-18T03:36:31.371Z,61.93
2023-04-18T03:38:58.851Z,64.17
2023-04-18T03:41:27.027Z,61.80
2023-04-18T03:43:55.870Z,62.03
2023-04-18T03:46:24.610Z,63.30
2023-04-18T03:48:53.693Z,61.10
2023-04-18T03:51:21.593Z,63.40
2023-04-18T03:53:48.536Z,61.87
2023-04-18T03:56:17.148Z,63.13
2023-04-18T03:58:52.086Z,62.93
2023-04-18T04:01:21.605Z,62.50
2023-04-18T04:03:51.543Z,61.30
2023-04-18T04:06:19.052Z,65.90
2023-04-18T04:08:46.036Z,72.13
2023-04-18T04:11:14.609Z,65.10
2023-04-18T04:13:42.380Z,60.33
2023-04-18T04:16:10.421Z,61.70
2023-04-18T04:18:37.811Z,60.47
2023-04-18T04:21:05.779Z,60.87
2023-04-18T04:23:50.479Z,61.77
2023-04-18T04:26:27.705Z,60.70
2023-04-18T04:29:03.624Z,61.03
2023-04-18T04:31:32.276Z,61.53
2023-04-18T04:33:59.334Z,61.63
2023-04-18T04:36:27.263Z,61.60
2023-04-18T04:38:56.942Z,61.63
2023-04-18T04:41:32.098Z,61.47
2023-04-18T04:43:59.736Z,60.53
2023-04-18T04:46:31.325Z,60.93
2023-04-18T04:49:00.956Z,61.00
2023-04-18T04:51:27.968Z,61.30
2023-04-18T04:53:55.587Z,60.53
2023-04-18T04:56:23.395Z,60.53
2023-04-18T04:58:50.573Z,60.77
2023-04-18T05:01:24.443Z,62.20
2023-04-18T05:03:52.635Z,61.30
2023-04-18T05:06:20.889Z,61.63
2023-04-18T05:08:48.839Z,61.63
2023-04-18T05:11:16.610Z,61.77
2023-04-18T05:13:43.683Z,62.10
2023-04-18T05:16:11.009Z,60.10
2023-04-18T05:18:39.343Z,60.57
2023-04-18T05:21:06.300Z,61.80
2023-04-18T05:23:36.850Z,61.23
2023-04-18T05:26:07.204Z,61.53
2023-04-18T05:28:34.178Z,61.07
2023-04-18T05:31:01.418Z,61.67
2023-04-18T05:33:29.630Z,62.47
2023-04-18T05:35:57.589Z,61.27
2023-04-18T05:38:24.723Z,61.73
2023-04-18T05:40:51.683Z,61.00
2023-04-18T05:43:19.891Z,62.50
2023-04-18T05:45:47.480Z,61.47
2023-04-18T05:48:14.695Z,60.63
2023-04-18T05:50:41.721Z,61.00
2023-04-18T05:53:08.730Z,62.23
2023-04-18T05:55:35.722Z,62.77
2023-04-18T05:58:02.684Z,61.77
2023-04-18T06:00:29.636Z,61.77
2023-04-18T06:02:56.775Z,63.27
2023-04-18T06:05:24.207Z,62.50
2023-04-18T06:07:51.306Z,61.47
2023-04-18T06:10:18.280Z,62.07
2023-04-18T06:12:45.399Z,62.63
2023-04-18T06:15:12.493Z,62.60
2023-04-18T06:17:39.639Z,61.47
2023-04-18T06:20:07.293Z,62.70
2023-04-18T06:22:34.321Z,63.80
2023-04-18T06:25:01.386Z,72.00
2023-04-18T06:27:31.464Z,183.87
2023-04-18T06:29:59.235Z,124.57
2023-04-18T06:32:26.584Z,286.80
2023-04-18T06:34:53.766Z,62.43
2023-04-18T06:37:21.057Z,62.30
2023-04-18T06:39:48.055Z,62.37
2023-04-18T06:42:15.080Z,63.60
2023-04-18T06:44:44.989Z,63.00
2023-04-18T06:47:12.299Z,63.60
2023-04-18T06:49:39.219Z,62.27
2023-04-18T06:52:06.509Z,62.47
2023-04-18T06:54:33.497Z,231.02
2023-04-18T06:57:02.197Z,86.53
2023-04-18T06:59:29.190Z,117.17
2023-04-18T07:01:56.304Z,77.50
2023-04-18T07:04:23.524Z,122.03
2023-04-18T07:06:52.018Z,64.00
2023-04-18T07:09:19.424Z,64.60
2023-04-18T07:11:46.456Z,64.03
2023-04-18T07:14:13.557Z,63.90
2023-04-18T07:16:40.785Z,65.03
2023-04-18T07:19:08.340Z,77.70
2023-04-18T07:21:35.385Z,79.33
2023-04-18T07:24:02.302Z,63.50
2023-04-18T07:26:29.253Z,67.37
2023-04-18T07:28:56.255Z,151.23
2023-04-18T07:31:25.647Z,79.97
2023-04-18T07:33:52.725Z,101.70
2023-04-18T07:36:20.065Z,102.93
2023-04-18T07:38:47.431Z,118.67
2023-04-18T07:41:14.534Z,152.70
2023-04-18T07:43:41.578Z,110.80
2023-04-18T07:46:08.699Z,66.90
2023-04-18T07:48:35.711Z,113.90
2023-04-18T07:51:03.932Z,65.50
2023-04-18T07:53:30.848Z,62.80
2023-04-18T07:55:57.858Z,64.80
2023-04-18T07:58:24.825Z,77.80
2023-04-18T08:00:51.788Z,67.77
2023-04-18T08:03:19.007Z,63.93
2023-04-18T08:05:46.273Z,72.30
2023-04-18T08:08:13.412Z,80.53
2023-04-18T08:10:40.433Z,90.20
2023-04-18T08:13:08.142Z,66.40
2023-04-18T08:15:35.308Z,67.00
2023-04-18T08:18:02.434Z,88.20
2023-04-18T08:20:29.523Z,94.23
2023-04-18T08:23:07.448Z,66.10
2023-04-18T08:25:36.398Z,68.73
2023-04-18T08:28:04.076Z,67.00
2023-04-18T08:30:31.572Z,97.57
2023-04-18T08:33:00.542Z,77.87
2023-04-18T08:35:27.750Z,108.18
2023-04-18T08:37:54.681Z,65.07
2023-04-18T08:40:21.924Z,133.57
2023-04-18T08:42:52.437Z,67.07
2023-04-18T08:45:20.866Z,96.53
2023-04-18T08:47:48.065Z,272.60
2023-04-18T08:50:16.531Z,64.83
2023-04-18T08:52:50.286Z,64.13
2023-04-18T08:55:19.118Z,65.83
2023-04-18T08:57:46.075Z,64.93
2023-04-18T09:00:14.116Z,64.47
2023-04-18T09:02:46.934Z,64.30
2023-04-18T09:05:19.866Z,64.97
2023-04-18T09:07:50.764Z,64.93
2023-04-18T09:10:29.247Z,65.77
2023-04-18T09:12:58.013Z,63.90
2023-04-18T09:15:29.161Z,65.80
2023-04-18T09:18:03.108Z,65.63
2023-04-18T09:20:41.113Z,65.53
2023-04-18T09:23:14.522Z,65.33
2023-04-18T09:25:44.549Z,65.47
2023-04-18T09:28:33.129Z,65.97
2023-04-18T09:31:10.190Z,66.07
2023-04-18T09:33:38.108Z,65.07
2023-04-18T09:36:28.969Z,66.25
2023-04-18T09:38:57.195Z,65.28
2023-04-18T09:41:24.578Z,65.18
2023-04-18T09:44:14.325Z,65.57
2023-04-18T09:46:44.470Z,66.38
2023-04-18T09:49:13.411Z,65.13
2023-04-18T09:51:42.057Z,64.72
2023-04-18T09:54:16.743Z,65.60
2023-04-18T09:56:50.516Z,63.60
2023-04-18T09:59:52.013Z,62.67
2023-04-18T10:02:23.795Z,64.72
2023-04-18T10:04:54.303Z,64.35
2023-04-18T10:07:21.850Z,65.47
2023-04-18T10:09:49.697Z,64.65
2023-04-18T10:12:18.527Z,65.25
2023-04-18T10:14:45.862Z,66.18
2023-04-18T10:17:15.276Z,65.32
2023-04-18T10:19:44.338Z,65.78
2023-04-18T10:22:12.297Z,64.93
2023-04-18T10:24:50.160Z,65.10
2023-04-18T10:27:18.452Z,81.90
2023-04-18T10:29:49.976Z,64.90
2023-04-18T10:32:23.919Z,65.03
2023-04-18T10:34:53.500Z,64.97
2023-04-18T10:37:20.668Z,64.93
2023-04-18T10:40:06.848Z,64.45
2023-04-18T10:42:51.828Z,65.18
2023-04-18T10:45:26.451Z,64.45
2023-04-18T10:48:21.883Z,65.70
2023-04-18T10:51:20.886Z,66.25
2023-04-18T10:53:57.950Z,65.72
2023-04-18T10:56:26.118Z,65.72
2023-04-18T10:58:53.881Z,65.28
2023-04-18T11:01:32.385Z,65.40
2023-04-18T11:04:01.096Z,64.15
2023-04-18T11:06:28.994Z,63.67
2023-04-18T11:09:13.745Z,65.78
2023-04-18T11:11:41.714Z,64.05
2023-04-18T11:14:08.976Z,63.42
2023-04-18T11:16:36.522Z,64.82
2023-04-18T11:19:26.375Z,64.78
2023-04-18T11:21:53.370Z,64.05
2023-04-18T11:24:24.578Z,63.72
2023-04-18T11:26:55.702Z,64.82
2023-04-18T11:29:23.052Z,65.10
2023-04-18T11:31:53.031Z,64.15
2023-04-18T11:34:20.809Z,66.30
2023-04-18T11:36:52.357Z,66.25
2023-04-18T11:39:20.184Z,65.35
2023-04-18T11:41:50.548Z,70.38
2023-04-18T11:44:27.692Z,65.63
2023-04-18T11:46:54.702Z,65.78
2023-04-18T11:49:30.245Z,66.85
2023-04-18T11:51:58.302Z,67.60
2023-04-18T11:54:39.137Z,67.38
2023-04-18T11:57:18.210Z,68.40
2023-04-18T11:59:50.931Z,66.32
2023-04-18T12:02:18.210Z,66.03
2023-04-18T12:05:00.181Z,65.32
2023-04-18T12:08:11.899Z,65.80
2023-04-18T12:10:50.602Z,65.13
2023-04-18T12:13:18.814Z,65.90
2023-04-18T12:15:46.817Z,65.85
2023-04-18T12:18:15.610Z,65.85
2023-04-18T12:20:50.857Z,64.57
2023-04-18T12:23:42.318Z,64.88
2023-04-18T12:26:18.222Z,66.90
2023-04-18T12:28:46.560Z,65.35
2023-04-18T12:31:13.538Z,65.90
2023-04-18T12:33:40.520Z,65.05
2023-04-18T12:36:09.043Z,65.97
2023-04-18T12:38:36.200Z,64.50
2023-04-18T12:41:03.225Z,64.22
2023-04-18T12:43:30.169Z,63.33
2023-04-18T12:45:57.751Z,64.55
2023-04-18T12:48:24.733Z,63.88
2023-04-18T12:50:51.648Z,64.22
2023-04-18T12:53:18.632Z,63.55
2023-04-18T12:55:45.769Z,64.40
2023-04-18T12:58:18.366Z,63.33
2023-04-18T13:00:45.851Z,65.30
2023-04-18T13:03:13.595Z,64.07
2023-04-18T13:05:41.072Z,65.97
2023-04-18T13:08:16.927Z,64.50
2023-04-18T13:10:46.133Z,63.78
2023-04-18T13:13:13.348Z,64.85
2023-04-18T13:15:40.680Z,63.35
2023-04-18T13:18:07.950Z,65.15
2023-04-18T13:20:35.851Z,65.15
2023-04-18T13:23:03.720Z,64.50
2023-04-18T13:25:30.776Z,63.75
2023-04-18T13:27:58.597Z,63.78
2023-04-18T13:30:26.077Z,64.60
2023-04-18T13:32:53.223Z,64.03
2023-04-18T13:35:20.400Z,63.85
2023-04-18T13:37:47.316Z,64.53
2023-04-18T13:40:15.924Z,61.78
2023-04-18T13:42:43.520Z,62.78
2023-04-18T13:45:11.019Z,64.07
2023-04-18T13:47:38.237Z,65.03
2023-04-18T13:50:06.218Z,65.10
2023-04-18T13:52:33.322Z,63.15
2023-04-18T13:55:00.976Z,64.38
2023-04-18T13:57:28.403Z,63.92
2023-04-18T13:59:55.555Z,63.75
2023-04-18T14:02:22.711Z,63.45
2023-04-18T14:04:49.985Z,62.75
2023-04-18T14:07:16.991Z,63.50
2023-04-18T14:09:43.991Z,63.70
2023-04-18T14:12:10.928Z,63.03
2023-04-18T14:14:37.916Z,63.42
2023-04-18T14:17:04.864Z,62.25
2023-04-18T14:19:31.835Z,62.80
2023-04-18T14:21:58.814Z,62.58
2023-04-18T14:24:26.141Z,61.70
2023-04-18T14:26:53.149Z,62.13
2023-04-18T14:29:20.141Z,62.63
2023-04-18T14:31:47.116Z,63.08
2023-04-18T14:34:14.411Z,61.78
2023-04-18T14:36:41.409Z,62.08
2023-04-18T14:39:08.450Z,62.13
2023-04-18T14:41:35.758Z,62.17
2023-04-18T14:44:04.035Z,62.13
2023-04-18T14:46:31.432Z,62.30
2023-04-18T14:48:58.468Z,61.92
2023-04-18T14:51:26.209Z,62.33
2023-04-18T14:53:53.167Z,61.83
2023-04-18T14:56:24.217Z,61.78
2023-04-18T14:58:51.269Z,61.45
2023-04-18T15:01:18.589Z,62.45
2023-04-18T15:03:46.093Z,61.70
2023-04-18T15:06:13.329Z,64.25
2023-04-18T15:08:40.615Z,62.92
2023-04-18T15:11:08.168Z,62.75
2023-04-18T15:13:35.365Z,61.63
2023-04-18T15:16:03.048Z,61.67
2023-04-18T15:18:30.333Z,61.30
2023-04-18T15:21:00.289Z,60.85
2023-04-18T15:23:27.720Z,62.15
2023-04-18T15:25:54.727Z,62.70
2023-04-18T15:28:21.658Z,60.97
2023-04-18T15:30:48.634Z,62.08
2023-04-18T15:33:15.859Z,61.90
2023-04-18T15:35:42.909Z,61.45
2023-04-18T15:38:09.885Z,61.58
2023-04-18T15:40:36.823Z,61.13
2023-04-18T15:43:04.232Z,60.42
2023-04-18T15:45:31.300Z,61.28
2023-04-18T15:47:59.015Z,61.30
2023-04-18T15:50:33.811Z,61.17
2023-04-18T15:53:02.045Z,60.85
2023-04-18T15:55:29.096Z,60.28
2023-04-18T15:57:56.406Z,60.08
2023-04-18T16:00:23.901Z,59.55
2023-04-18T16:02:51.284Z,59.20
2023-04-18T16:05:18.929Z,58.95
2023-04-18T16:07:46.106Z,59.13
2023-04-18T16:10:15.083Z,59.45
2023-04-18T16:12:42.025Z,59.85
2023-04-18T16:15:10.622Z,60.40
2023-04-18T16:17:38.134Z,59.72
2023-04-18T16:20:08.135Z,60.25
2023-04-18T16:22:35.255Z,58.93
2023-04-18T16:25:02.554Z,59.05
2023-04-18T16:27:29.621Z,59.78
2023-04-18T16:29:56.681Z,60.58
2023-04-18T16:32:23.791Z,61.00
2023-04-18T16:34:50.867Z,60.78
2023-04-18T16:37:17.814Z,61.08
2023-04-18T16:39:44.814Z,60.05
2023-04-18T16:42:14.047Z,61.17
2023-04-18T16:44:42.422Z,60.92
2023-04-18T16:47:09.533Z,60.38
2023-04-18T16:49:37.436Z,60.53
2023-04-18T16:52:04.532Z,62.45
2023-04-18T16:54:31.661Z,61.27
2023-04-18T16:56:58.638Z,60.25
2023-04-18T16:59:26.014Z,59.47
2023-04-18T17:01:53.132Z,60.58
2023-04-18T17:04:21.042Z,60.83
2023-04-18T17:06:48.844Z,61.58
2023-04-18T17:09:16.890Z,62.15
2023-04-18T17:11:44.026Z,61.97
2023-04-18T17:14:11.542Z,62.67
2023-04-18T17:16:40.407Z,79.32
2023-04-18T17:19:08.252Z,61.70
2023-04-18T17:21:36.454Z,61.08
2023-04-18T17:24:06.652Z,61.20
2023-04-18T17:26:35.174Z,61.17
2023-04-18T17:29:04.127Z,60.57
2023-04-18T17:31:31.936Z,269.52
2023-04-18T17:34:00.010Z,241.02
2023-04-18T17:36:27.239Z,215.82
2023-04-18T17:38:54.316Z,214.52
2023-04-18T17:41:21.889Z,251.40
2023-04-18T17:43:50.955Z,208.32
2023-04-18T17:46:18.187Z,240.88
2023-04-18T17:48:45.376Z,216.10
2023-04-18T17:51:12.385Z,210.43
2023-04-18T17:53:39.305Z,251.48
2023-04-18T17:56:06.354Z,212.52
2023-04-18T17:58:33.310Z,171.02
2023-04-18T18:01:00.380Z,176.70
2023-04-18T18:03:27.721Z,139.50
2023-04-18T18:05:55.006Z,143.25
2023-04-18T18:08:22.681Z,139.55
2023-04-18T18:10:49.978Z,142.38
2023-04-18T18:13:17.162Z,121.65
2023-04-18T18:15:44.188Z,124.05
2023-04-18T18:18:11.423Z,131.23
2023-04-18T18:20:41.953Z,114.35
2023-04-18T18:23:09.007Z,122.22
2023-04-18T18:25:37.681Z,155.45
2023-04-18T18:28:04.936Z,160.10
2023-04-18T18:30:31.985Z,135.10
2023-04-18T18:33:00.726Z,111.90
2023-04-18T18:35:27.809Z,144.45
2023-04-18T18:37:54.781Z,69.00
2023-04-18T18:40:22.026Z,61.80
2023-04-18T18:42:53.802Z,104.50
2023-04-18T18:45:21.623Z,294.92
2023-04-18T18:47:48.889Z,61.15
2023-04-18T18:50:15.911Z,64.45
2023-04-18T18:52:45.439Z,71.32
2023-04-18T18:55:12.459Z,64.00
2023-04-18T18:57:39.495Z,64.05
2023-04-18T19:00:11.151Z,65.80
2023-04-18T19:02:39.608Z,67.60
2023-04-18T19:05:07.272Z,65.28
2023-04-18T19:07:34.261Z,62.97
2023-04-18T19:10:01.774Z,59.95
2023-04-18T19:12:29.278Z,66.03
2023-04-18T19:14:56.429Z,63.95
2023-04-18T19:17:24.779Z,62.58
2023-04-18T19:19:53.280Z,66.85
2023-04-18T19:22:20.365Z,62.17
2023-04-18T19:24:47.437Z,60.55
2023-04-18T19:27:14.450Z,71.05
2023-04-18T19:29:41.410Z,60.65
2023-04-18T19:32:08.717Z,61.17
2023-04-18T19:34:36.107Z,59.78
2023-04-18T19:37:03.617Z,60.35
2023-04-18T19:39:30.646Z,60.38
2023-04-18T19:41:57.554Z,60.58
2023-04-18T19:44:24.626Z,60.03
2023-04-18T19:46:51.562Z,183.43
2023-04-18T19:49:18.614Z,151.55
2023-04-18T19:51:45.712Z,191.80
2023-04-18T19:54:13.282Z,209.43
2023-04-18T19:56:40.411Z,153.35
2023-04-18T19:59:07.347Z,123.78
2023-04-18T20:01:34.389Z,167.88
2023-04-18T20:04:01.565Z,73.15
2023-04-18T20:06:28.837Z,65.75
2023-04-18T20:08:55.856Z,126.20
2023-04-18T20:11:23.045Z,77.95
2023-04-18T20:13:52.264Z,93.88
2023-04-18T20:16:19.236Z,111.40
2023-04-18T20:18:47.272Z,77.03
2023-04-18T20:21:14.324Z,168.25
2023-04-18T20:23:45.224Z,56.65
2023-04-18T20:26:12.239Z,58.33
2023-04-18T20:28:39.284Z,75.38
2023-04-18T20:31:07.079Z,83.05
2023-04-18T20:33:34.390Z,74.93
2023-04-18T20:36:01.351Z,61.55
2023-04-18T20:38:29.821Z,54.63
2023-04-18T20:40:58.764Z,57.58
2023-04-18T20:43:26.820Z,83.53
2023-04-18T20:45:54.498Z,61.17
2023-04-18T20:48:21.653Z,66.43
2023-04-18T20:50:51.601Z,85.85
2023-04-18T20:53:25.100Z,54.55
2023-04-18T20:55:52.120Z,88.93
2023-04-18T20:58:19.115Z,72.57
2023-04-18T21:00:46.283Z,69.82
2023-04-18T21:03:14.063Z,100.10
2023-04-18T21:05:41.424Z,68.20
2023-04-18T21:08:08.359Z,112.72
2023-04-18T21:10:35.301Z,66.38
2023-04-18T21:13:02.336Z,66.07
2023-04-18T21:15:29.375Z,58.05
2023-04-18T21:17:56.485Z,78.80
2023-04-18T21:20:23.565Z,69.50
2023-04-18T21:22:50.611Z,92.68
2023-04-18T21:25:18.606Z,114.20
2023-04-18T21:27:45.562Z,82.43
2023-04-18T21:30:13.105Z,111.05
2023-04-18T21:32:40.101Z,75.82
2023-04-18T21:35:07.403Z,143.77
2023-04-18T21:37:34.409Z,57.20
2023-04-18T21:40:01.890Z,54.63
2023-04-18T21:42:28.959Z,54.45
2023-04-18T21:44:55.888Z,55.47
2023-04-18T21:47:22.841Z,54.67
2023-04-18T21:49:49.844Z,60.58
2023-04-18T21:52:16.778Z,93.28
2023-04-18T21:54:43.820Z,166.38
2023-04-18T21:57:11.008Z,105.60
2023-04-18T21:59:37.958Z,159.15
2023-04-18T22:02:05.315Z,116.40
2023-04-18T22:04:33.858Z,145.43
2023-04-18T22:07:00.896Z,94.38
2023-04-18T22:09:28.531Z,131.02
2023-04-18T22:11:56.948Z,113.32
2023-04-18T22:14:24.878Z,158.70
2023-04-18T22:16:51.925Z,117.05
2023-04-18T22:19:19.399Z,73.60
2023-04-18T22:21:46.723Z,146.60
2023-04-18T22:24:13.883Z,105.50
2023-04-18T22:26:45.402Z,83.38
2023-04-18T22:29:12.301Z,76.47
2023-04-18T22:31:39.264Z,107.85
2023-04-18T22:34:06.315Z,113.28
2023-04-18T22:36:33.245Z,151.98
2023-04-18T22:39:00.397Z,102.93
2023-04-18T22:41:27.458Z,132.57
2023-04-18T22:43:54.422Z,156.35
2023-04-18T22:46:21.699Z,147.65
2023-04-18T22:48:49.680Z,146.55
2023-04-18T22:51:18.226Z,109.18
2023-04-18T22:53:45.204Z,127.97
2023-04-18T22:56:12.213Z,76.93
2023-04-18T22:58:39.205Z,108.50
2023-04-18T23:01:06.245Z,89.50
2023-04-18T23:03:34.401Z,132.68
2023-04-18T23:06:01.559Z,128.77
2023-04-18T23:08:28.806Z,100.55
2023-04-18T23:10:55.839Z,82.40
2023-04-18T23:13:22.889Z,114.18
2023-04-18T23:15:49.972Z,98.55
2023-04-18T23:18:17.068Z,68.45
2023-04-18T23:20:44.106Z,76.10
2023-04-18T23:23:11.090Z,70.80
2023-04-18T23:25:38.324Z,59.13
2023-04-18T23:28:06.333Z,157.15
2023-04-18T23:30:36.916Z,105.60
2023-04-18T23:33:04.010Z,129.00
2023-04-18T23:35:31.034Z,59.40
2023-04-18T23:37:58.119Z,145.52
2023-04-18T23:40:25.381Z,112.82
2023-04-18T23:42:52.308Z,81.28
2023-04-18T23:45:19.516Z,69.93
2023-04-18T23:47:46.601Z,57.85
2023-04-18T23:50:13.664Z,57.53
2023-04-18T23:52:40.718Z,58.58
2023-04-18T23:55:08.423Z,55.88
2023-04-18T23:57:35.599Z,60.92
